Sheridan, WY

8:11 PM MST on February 24, 2017 (GMT -0700)
South Sheridan | | Change Station

Elev 3770 ft 44.79 °N, 106.95 °W | Updated 2 seconds ago

Light Snow
Light Snow
25.9 °F
Feels Like 26 °F
N
0.0
Wind Variable Wind from SSE
Gusts 0.0 mph

Today
High -- | Low -- °F
--% Chance of Precip.
Yesterday
High -- | Low -- °F
Precip. -- in
Pressure 30.13 in
Visibility 8.0 miles
Clouds Mostly Cloudy 4200 ft
Overcast 7000 ft
Windchill 26 °F
Dew Point 20 °F
Humidity 78%
Rainfall 0.05 in
Snow Depth Not available.
6:53 AM 5:49 PM
Waning Crescent, 3% visible
METAR KSHR 250253Z AUTO 25007KT 8SM -SN BKN042 OVC070 M03/M06 A2999 RMK AO2 SNB34 SLP201 P0000 60000 T10281061 53005
Pressure 30.13 in
Visibility 8.0 miles
Clouds Mostly Cloudy 4200 ft
Overcast 7000 ft
Windchill 26 °F
Dew Point 20 °F
Humidity 78%
Rainfall 0.05 in
Snow Depth Not available.
6:53 AM 5:49 PM
Waning Crescent, 3% visible
METAR KSHR 250253Z AUTO 25007KT 8SM -SN BKN042 OVC070 M03/M06 A2999 RMK AO2 SNB34 SLP201 P0000 60000 T10281061 53005

Get Your Daily Forecast Email!

Thanks for signing up!

Be on the lookout for a verification email in your inbox.

You'll start receiving the daily forecast at 8 AM.

×

10-Day Weather Forecast

Almanac

Astronomy

Feb. 24, 2017 Rise Set
Actual Time
Civil Twilight
Nautical Twilight
Astronomical Twilight
Moon
Length of Visible Light
Length of Day
Tomorrow will be .
, % of the Moon is Illuminated

Today's Extremes

State Highs State Lows

Community

WunderPhotos

Upload Photos

1,962,540 photos uploaded!

WunderBlog® & News

Nearby

Air Quality

  Air Quality AQ Index Pollutant
Not available.

Snow Depth

Station Depth Elevation

Earthquake Activity

City Distance Mag. Time & Date
Minimum magnitude displayed is 2.5.

Coastal Water Temperatures

Place Temperature

Stations

Nearby Weather Stations

Station Location Temp. Windchill Dew Point Humidity Wind Precip. Elev Updated Type
                   

Watches & Warnings

There are currently no watches in effect.